This is the latest recevied weather packets stored in our database for station/object JS1SZZ-13. If no packets are shown the sender has not sent any weather packets the latest 10 day(s).
| Time | Temp. | Humidity | Pressure | Rain* | Wind** | Luminosity | Snow |
|---|---|---|---|---|---|---|---|
| 1787732859 | 29.44° C | 66% | 1008.6 hPa | 0 mm | - | - | - |
| 1787731958 | 30.56° C | 62% | 1008.4 hPa | 0 mm | - | - | - |
| 1787731060 | 31.11° C | 59% | 1008.4 hPa | 0 mm | - | - | - |
| 1787730159 | 31.67° C | 54% | 1008.4 hPa | 0 mm | - | - | - |
| 1787729258 | 31.67° C | 52% | 1008.4 hPa | 0 mm | - | - | - |
| 1787728359 | 32.22° C | 51% | 1008.3 hPa | 0 mm | - | - | - |
| 1787727460 | 32.22° C | 51% | 1008.3 hPa | 0 mm | - | - | - |
| 1787726559 | 32.22° C | 51% | 1008.4 hPa | 0 mm | - | - | - |
| 1787725658 | 32.22° C | 51% | 1008.6 hPa | 0 mm | - | - | - |
| 1787724760 | 32.22° C | 51% | 1008.3 hPa | 0 mm | - | - | - |
| 1787723859 | 32.22° C | 51% | 1008.4 hPa | 0 mm | - | - | - |
| 1787722959 | 32.22° C | 51% | 1008.5 hPa | 0 mm | - | - | - |
| 1787722058 | 32.22° C | 53% | 1008.4 hPa | 0 mm | - | - | - |
| 1787721160 | 32.22° C | 51% | 1008.5 hPa | 0 mm | - | - | - |
| 1787720259 | 31.67° C | 51% | 1008.9 hPa | 0 mm | - | - | - |
| 1787719358 | 31.67° C | 48% | 1009.4 hPa | 0 mm | - | - | - |
| 1787718460 | 31.67° C | 54% | 1009.4 hPa | 0 mm | - | - | - |
| 1787717559 | 31.67° C | 50% | 1009.2 hPa | 0 mm | - | - | - |
| 1787716658 | 31.11° C | 54% | 1009 hPa | 0 mm | - | - | - |
| 1787715760 | 31.67° C | 53% | 1009.3 hPa | 0 mm | - | - | - |
| 1787714859 | 32.22° C | 51% | 1009.4 hPa | 0 mm | - | - | - |
| 1787713959 | 31.67° C | 51% | 1009.7 hPa | 0 mm | - | - | - |
| 1787713060 | 31.11° C | 53% | 1009.5 hPa | 0 mm | - | - | - |
| 1787712159 | 31.67° C | 51% | 1009.4 hPa | 0 mm | - | - | - |
| 1787711260 | 31.67° C | 55% | 1009.6 hPa | 0 mm | - | - | - |
* Rain latest hour (hover to see other rain measurements)
** Current wind speed in m/s (hover to see current wind gust speed)